Time;durP1;ratioP1;P1;durP2;ratioP2;P2;SDS_P1;SDS_P2;PMS_P1;PMS_P2;Temp;Humidity;BMP_temperature;BMP_pressure;BME280_temperature;BME280_humidity;BME280_pressure;Samples;Min_cycle;Max_cycle;Signal;HPM_P1;HPM_P2
2023/08/17 00:01:08;;;;;;;12.90;4.35;;;22.00;99.50;;;;;;4070711;29;20048;-57
2023/08/17 00:03:11;;;;;;;6.22;3.75;;;22.00;99.50;;;;;;4070006;29;20044;-58
2023/08/17 00:05:13;;;;;;;6.32;3.75;;;21.90;99.60;;;;;;4070628;29;20542;-58
2023/08/17 00:07:15;;;;;;;9.88;4.15;;;21.90;99.60;;;;;;4070349;29;20106;-57
2023/08/17 00:09:18;;;;;;;6.35;3.85;;;21.90;99.60;;;;;;4070524;29;20051;-58
2023/08/17 00:11:21;;;;;;;5.90;4.13;;;22.00;99.70;;;;;;4070482;29;20151;-58
2023/08/17 00:13:23;;;;;;;5.05;3.95;;;21.90;99.80;;;;;;4069865;29;20123;-58
2023/08/17 00:15:25;;;;;;;6.82;4.30;;;21.80;99.90;;;;;;4070126;29;20482;-58
2023/08/17 00:17:27;;;;;;;15.85;4.10;;;21.80;99.90;;;;;;4070651;29;20072;-58
2023/08/17 00:19:29;;;;;;;6.45;4.00;;;21.90;99.90;;;;;;4070562;29;20048;-58
2023/08/17 00:21:31;;;;;;;8.48;4.10;;;21.80;99.90;;;;;;4070228;29;20058;-58
2023/08/17 00:23:34;;;;;;;6.63;4.57;;;21.90;99.90;;;;;;4070030;29;20052;-58
2023/08/17 00:25:37;;;;;;;6.30;4.20;;;21.90;99.90;;;;;;4070472;29;20130;-58
2023/08/17 00:27:39;;;;;;;11.05;4.43;;;21.80;99.90;;;;;;4070358;29;20079;-58
2023/08/17 00:29:41;;;;;;;6.97;4.70;;;21.80;99.90;;;;;;4070380;29;20076;-58
2023/08/17 00:31:43;;;;;;;10.18;4.25;;;21.80;99.90;;;;;;4070357;29;20080;-59
2023/08/17 00:33:46;;;;;;;6.03;4.18;;;21.80;99.90;;;;;;4069779;29;20052;-62
2023/08/17 00:35:48;;;;;;;6.97;4.35;;;21.70;99.90;;;;;;4070011;29;20055;-58
2023/08/17 00:37:50;;;;;;;9.20;4.47;;;21.70;99.90;;;;;;4070442;29;20498;-58
2023/08/17 00:39:52;;;;;;;7.18;4.13;;;21.70;99.90;;;;;;4070326;29;20052;-58
2023/08/17 00:41:55;;;;;;;7.95;3.78;;;21.60;99.90;;;;;;4070014;29;20074;-58
2023/08/17 00:43:58;;;;;;;8.70;4.00;;;21.60;99.90;;;;;;4069462;29;20052;-58
2023/08/17 00:46:00;;;;;;;8.07;3.83;;;21.60;99.90;;;;;;4069940;29;20059;-56
2023/08/17 00:48:04;;;;;;;12.88;4.55;;;21.50;99.90;;;;;;4069942;29;20052;-55
2023/08/17 00:50:07;;;;;;;;;;;21.50;99.90;;;;;;4070180;29;20048;-55
2023/08/17 00:52:10;;;;;;;8.02;3.90;;;21.50;99.90;;;;;;4069875;29;19923;-56
2023/08/17 00:54:12;;;;;;;7.30;4.05;;;21.50;99.90;;;;;;4069108;29;20048;-56
2023/08/17 00:56:15;;;;;;;9.65;4.15;;;21.50;99.90;;;;;;4069539;29;20074;-57
2023/08/17 00:58:18;;;;;;;7.32;3.95;;;21.50;99.90;;;;;;4069947;29;20418;-55
2023/08/17 01:00:20;;;;;;;7.15;4.40;;;21.50;99.90;;;;;;4069641;29;20396;-60
2023/08/17 01:02:23;;;;;;;7.75;3.92;;;21.50;99.90;;;;;;4069769;29;20135;-60
2023/08/17 01:04:25;;;;;;;7.47;4.38;;;21.50;99.90;;;;;;4069104;29;20415;-61
2023/08/17 01:06:27;;;;;;;6.15;3.80;;;21.50;99.90;;;;;;4070021;29;20048;-68
2023/08/17 01:08:30;;;;;;;8.48;4.60;;;21.50;99.90;;;;;;4070065;29;20044;-60
2023/08/17 01:10:49;;;;;;;8.55;4.55;;;21.50;99.90;;;;;;4069853;29;20131;-61
2023/08/17 01:13:00;;;;;;;7.05;4.70;;;21.60;99.90;;;;;;4068251;29;20052;-60
2023/08/17 01:15:09;;;;;;;6.95;4.45;;;21.60;99.90;;;;;;4069011;29;20099;-60
2023/08/17 01:17:18;;;;;;;8.07;4.82;;;21.50;99.90;;;;;;4069708;29;20052;-60
2023/08/17 01:19:27;;;;;;;9.18;4.90;;;21.60;99.90;;;;;;4069203;29;20103;-59
2023/08/17 01:21:37;;;;;;;6.20;4.68;;;21.50;99.90;;;;;;4069535;29;20048;-60
2023/08/17 01:23:40;;;;;;;8.23;4.85;;;21.50;99.90;;;;;;4067836;29;20052;-60
2023/08/17 01:25:42;;;;;;;6.68;4.70;;;21.50;99.90;;;;;;4069451;29;20076;-59
2023/08/17 01:27:45;;;;;;;7.97;5.18;;;21.50;99.90;;;;;;4069465;29;20048;-60
2023/08/17 01:29:47;;;;;;;7.93;5.15;;;21.40;99.90;;;;;;4069562;29;20059;-60
2023/08/17 01:32:00;;;;;;;14.10;5.32;;;21.40;99.90;;;;;;4069527;29;20048;-59
2023/08/17 01:34:07;;;;;;;9.68;5.22;;;21.40;99.90;;;;;;4068350;29;20534;-60
2023/08/17 01:36:16;;;;;;;6.22;5.10;;;21.40;99.90;;;;;;4069253;29;20051;-60
2023/08/17 01:38:21;;;;;;;9.77;5.30;;;21.30;99.90;;;;;;4069255;29;20044;-59
2023/08/17 01:40:28;;;;;;;14.63;6.20;;;21.30;99.90;;;;;;4069326;29;20056;-60
2023/08/17 01:42:31;;;;;;;9.30;5.30;;;21.30;99.90;;;;;;4069336;29;20148;-59
2023/08/17 01:44:33;;;;;;;9.02;4.78;;;21.30;99.90;;;;;;4068593;29;20052;-60
2023/08/17 01:46:35;;;;;;;10.07;6.00;;;21.30;99.90;;;;;;4069294;29;20384;-60
2023/08/17 01:48:37;;;;;;;9.45;5.75;;;21.20;99.90;;;;;;4069033;29;20052;-60
2023/08/17 01:50:39;;;;;;;8.48;5.90;;;21.10;99.90;;;;;;4069142;29;20131;-60
2023/08/17 01:52:41;;;;;;;9.32;5.80;;;21.10;99.90;;;;;;4068849;29;20083;-60
2023/08/17 01:54:43;;;;;;;10.00;5.78;;;21.10;99.90;;;;;;4068519;29;20048;-60
2023/08/17 01:56:47;;;;;;;9.05;6.03;;;21.10;99.90;;;;;;4069138;29;20120;-60
2023/08/17 01:58:49;;;;;;;15.07;6.22;;;21.10;99.90;;;;;;4069011;29;20067;-60
2023/08/17 02:00:51;;;;;;;9.90;6.50;;;21.10;99.90;;;;;;4069090;29;20055;-60
2023/08/17 02:02:53;;;;;;;10.73;6.35;;;21.10;99.90;;;;;;4068660;29;20127;-60
2023/08/17 02:04:55;;;;;;;9.88;6.15;;;21.10;99.90;;;;;;4068067;29;20425;-61
2023/08/17 02:06:57;;;;;;;8.82;6.20;;;21.00;99.90;;;;;;4068193;29;20051;-60
2023/08/17 02:08:59;;;;;;;8.18;6.72;;;21.00;99.90;;;;;;4068958;29;20483;-59
2023/08/17 02:11:01;;;;;;;8.93;6.18;;;21.00;99.90;;;;;;4068586;29;20055;-60
2023/08/17 02:13:05;;;;;;;12.82;6.90;;;21.00;99.90;;;;;;4068737;29;20072;-60
2023/08/17 02:15:18;;;;;;;9.90;6.28;;;21.00;99.90;;;;;;4067962;29;20095;-60
2023/08/17 02:17:22;;;;;;;11.15;6.32;;;20.90;99.90;;;;;;4068352;29;20055;-59
2023/08/17 02:19:25;;;;;;;10.13;6.93;;;20.80;99.90;;;;;;4068853;29;20048;-60
2023/08/17 02:21:27;;;;;;;12.77;7.53;;;20.90;99.90;;;;;;4068700;29;20123;-59
2023/08/17 02:23:33;;;;;;;10.10;6.32;;;20.80;99.90;;;;;;4068375;29;20062;-60
2023/08/17 02:25:38;;;;;;;13.38;7.10;;;20.70;99.90;;;;;;4068412;29;20056;-59
2023/08/17 02:27:40;;;;;;;9.38;7.00;;;20.80;99.90;;;;;;4068569;29;20414;-59
2023/08/17 02:29:43;;;;;;;11.18;6.93;;;20.70;99.90;;;;;;4068640;29;20048;-59
2023/08/17 02:31:45;;;;;;;11.10;7.20;;;20.70;99.90;;;;;;4068513;29;20463;-61
2023/08/17 02:33:47;;;;;;;10.65;6.72;;;20.70;99.90;;;;;;4067962;29;20140;-59
2023/08/17 02:35:50;;;;;;;9.57;6.80;;;20.70;99.90;;;;;;4068301;29;20044;-59
2023/08/17 02:37:52;;;;;;;11.63;6.57;;;20.60;99.90;;;;;;4068533;29;20436;-60
2023/08/17 02:39:54;;;;;;;14.23;7.30;;;20.70;99.90;;;;;;4068659;29;20051;-60
2023/08/17 02:41:56;;;;;;;8.73;6.50;;;20.70;99.90;;;;;;4068548;29;20056;-59
2023/08/17 02:43:58;;;;;;;9.50;6.93;;;20.70;99.90;;;;;;4067586;29;20367;-59
2023/08/17 02:46:07;;;;;;;13.38;6.13;;;20.60;99.90;;;;;;4068139;29;20472;-59
2023/08/17 02:48:09;;;;;;;9.52;6.63;;;20.60;99.90;;;;;;4068561;29;20071;-60
2023/08/17 02:50:11;;;;;;;12.82;6.57;;;20.60;99.90;;;;;;4068212;29;20051;-60
2023/08/17 02:52:13;;;;;;;10.98;6.55;;;20.60;99.90;;;;;;4068232;29;20139;-60
2023/08/17 02:54:15;;;;;;;13.18;6.70;;;20.60;99.90;;;;;;4067666;29;20055;-60
2023/08/17 02:56:17;;;;;;;10.63;6.30;;;20.60;99.90;;;;;;4068216;29;20442;-60
2023/08/17 02:58:20;;;;;;;12.40;7.28;;;20.50;99.90;;;;;;4068260;29;20072;-60
2023/08/17 03:00:22;;;;;;;10.68;6.55;;;20.50;99.90;;;;;;4067929;29;20052;-59
2023/08/17 03:02:25;;;;;;;11.27;7.00;;;20.50;99.90;;;;;;4068323;29;20052;-60
2023/08/17 03:04:28;;;;;;;13.95;7.18;;;20.50;99.90;;;;;;4067810;29;20048;-59
2023/08/17 03:06:30;;;;;;;14.07;7.00;;;20.50;99.90;;;;;;4068081;29;20051;-59
2023/08/17 03:08:32;;;;;;;12.80;7.43;;;20.50;99.90;;;;;;4068297;29;20048;-59
2023/08/17 03:10:34;;;;;;;11.05;7.25;;;20.50;99.90;;;;;;4068167;29;20478;-59
2023/08/17 03:12:37;;;;;;;10.63;6.75;;;20.50;99.90;;;;;;4068216;29;20068;-60
2023/08/17 03:14:39;;;;;;;11.93;7.43;;;20.60;99.90;;;;;;4067075;29;20119;-60
2023/08/17 03:16:41;;;;;;;10.27;6.40;;;20.60;99.90;;;;;;4068296;29;20055;-59
2023/08/17 03:18:45;;;;;;;10.00;6.57;;;20.60;99.90;;;;;;4070129;29;20059;-59
2023/08/17 03:20:47;;;;;;;8.73;6.88;;;20.60;99.90;;;;;;4071275;29;20063;-60
2023/08/17 03:22:49;;;;;;;9.70;7.40;;;20.60;99.90;;;;;;4071094;29;20063;-59
2023/08/17 03:24:51;;;;;;;10.75;7.18;;;20.70;99.90;;;;;;4070817;29;20071;-60
2023/08/17 03:26:53;;;;;;;9.18;6.40;;;20.70;99.90;;;;;;4070197;29;20127;-60
2023/08/17 03:28:55;;;;;;;9.38;7.13;;;20.70;99.90;;;;;;4071175;29;20055;-60
2023/08/17 03:30:57;;;;;;;10.25;6.93;;;20.70;99.90;;;;;;4070963;29;20123;-59
2023/08/17 03:32:59;;;;;;;10.45;7.07;;;20.60;99.90;;;;;;4070923;29;20055;-59
2023/08/17 03:35:03;;;;;;;11.68;7.43;;;20.60;99.90;;;;;;4070275;29;20048;-60
2023/08/17 03:37:05;;;;;;;11.48;7.75;;;20.50;99.90;;;;;;4071088;29;20508;-60
2023/08/17 03:39:07;;;;;;;12.68;8.13;;;20.50;99.90;;;;;;4071161;29;20055;-60
2023/08/17 03:41:10;;;;;;;14.45;8.05;;;20.50;99.90;;;;;;4071039;29;20068;-60
2023/08/17 03:43:12;;;;;;;14.48;7.95;;;20.40;99.90;;;;;;4071022;29;20487;-60
2023/08/17 03:45:14;;;;;;;10.00;8.20;;;20.40;99.90;;;;;;4069807;29;20083;-60
2023/08/17 03:47:16;;;;;;;11.65;8.63;;;20.30;99.90;;;;;;4071112;29;20079;-60
2023/08/17 03:49:18;;;;;;;13.55;8.73;;;20.20;99.90;;;;;;4070958;29;20055;-60
2023/08/17 03:51:22;;;;;;;12.93;8.77;;;20.20;99.90;;;;;;4070793;29;20060;-60
2023/08/17 03:53:24;;;;;;;13.63;8.75;;;20.20;99.90;;;;;;4070947;29;20048;-60
2023/08/17 03:55:26;;;;;;;14.95;9.73;;;20.20;99.90;;;;;;4070114;29;20082;-60
2023/08/17 03:57:28;;;;;;;12.57;8.85;;;20.10;99.90;;;;;;4070737;29;20540;-60
2023/08/17 03:59:30;;;;;;;15.57;9.73;;;20.10;99.90;;;;;;4070418;29;20050;-60
2023/08/17 04:01:32;;;;;;;14.75;9.52;;;20.10;99.90;;;;;;4070869;29;20491;-60
2023/08/17 04:03:34;;;;;;;21.67;9.85;;;20.10;99.90;;;;;;4070757;29;20054;-58
2023/08/17 04:05:36;;;;;;;12.95;10.02;;;20.00;99.90;;;;;;4070198;29;20055;-58
2023/08/17 04:07:39;;;;;;;14.18;8.95;;;20.10;99.90;;;;;;4069739;29;20097;-62
2023/08/17 04:09:44;;;;;;;16.65;9.80;;;20.00;99.90;;;;;;4071227;29;20072;-58
2023/08/17 04:11:46;;;;;;;16.73;9.98;;;20.00;99.90;;;;;;4070628;29;20154;-58
2023/08/17 04:13:48;;;;;;;19.17;11.05;;;19.90;99.90;;;;;;4070299;29;20415;-58
2023/08/17 04:15:50;;;;;;;18.73;10.07;;;19.90;99.90;;;;;;4068549;29;20131;-58
2023/08/17 04:17:52;;;;;;;15.35;10.05;;;19.90;99.90;;;;;;4070445;29;20044;-58
2023/08/17 04:19:54;;;;;;;15.93;9.95;;;19.80;99.90;;;;;;4070632;29;20414;-58
2023/08/17 04:21:57;;;;;;;15.38;10.85;;;19.90;99.90;;;;;;4070437;29;20131;-57
2023/08/17 04:24:00;;;;;;;16.83;9.80;;;19.80;99.90;;;;;;4070179;29;20076;-58
2023/08/17 04:26:02;;;;;;;16.25;10.27;;;19.80;99.90;;;;;;4069992;29;20407;-58
2023/08/17 04:28:04;;;;;;;15.30;10.38;;;19.80;99.90;;;;;;4069861;29;20048;-58
2023/08/17 04:30:07;;;;;;;13.63;9.75;;;19.80;99.90;;;;;;4069838;29;20135;-58
2023/08/17 04:32:15;;;;;;;16.52;10.90;;;19.80;99.90;;;;;;4070263;29;20168;-57
2023/08/17 04:34:17;;;;;;;18.88;11.65;;;19.90;99.90;;;;;;4069912;29;20060;-58
2023/08/17 04:36:19;;;;;;;16.38;10.60;;;19.80;99.90;;;;;;4070231;29;20147;-58
2023/08/17 04:38:21;;;;;;;15.73;10.65;;;19.80;99.90;;;;;;4070216;29;20135;-58
2023/08/17 04:40:24;;;;;;;18.08;11.57;;;19.80;99.90;;;;;;4070217;29;20407;-58
2023/08/17 04:42:27;;;;;;;16.20;11.13;;;19.80;99.90;;;;;;4069659;29;20127;-58
2023/08/17 04:44:29;;;;;;;16.70;11.32;;;19.80;99.90;;;;;;4069580;29;20127;-58
2023/08/17 04:46:31;;;;;;;18.95;12.40;;;19.80;99.90;;;;;;4069950;29;20052;-57
2023/08/17 04:48:33;;;;;;;15.75;11.10;;;19.80;99.90;;;;;;4070239;29;20127;-57
2023/08/17 04:50:36;;;;;;;16.65;11.00;;;19.80;99.90;;;;;;4069949;29;20059;-58
2023/08/17 04:52:38;;;;;;;16.00;11.65;;;19.80;99.90;;;;;;4070120;29;20052;-58
2023/08/17 04:54:40;;;;;;;17.30;11.50;;;19.80;99.90;;;;;;4069544;29;20048;-58
2023/08/17 04:56:43;;;;;;;14.60;11.13;;;19.80;99.90;;;;;;4069474;29;20052;-57
2023/08/17 04:58:45;;;;;;;17.30;11.10;;;19.70;99.90;;;;;;4070229;29;20048;-58
2023/08/17 05:00:47;;;;;;;17.13;11.45;;;19.80;99.90;;;;;;4069725;29;20076;-58
2023/08/17 05:02:49;;;;;;;19.98;11.50;;;19.70;99.90;;;;;;4070109;29;20052;-58
2023/08/17 05:04:51;;;;;;;17.70;11.77;;;19.70;99.90;;;;;;4069090;29;20044;-58
2023/08/17 05:06:55;;;;;;;18.70;11.80;;;19.70;99.90;;;;;;4069776;29;20131;-58
2023/08/17 05:08:58;;;;;;;20.08;11.73;;;19.70;99.90;;;;;;4069869;29;20135;-58
2023/08/17 05:11:00;;;;;;;19.27;12.23;;;19.70;99.90;;;;;;4069418;29;20087;-57
2023/08/17 05:13:03;;;;;;;18.58;12.30;;;19.70;99.90;;;;;;4069508;29;20048;-58
2023/08/17 05:15:07;;;;;;;18.17;12.80;;;19.70;99.90;;;;;;4067748;29;20063;-58
2023/08/17 05:17:12;;;;;;;20.25;12.50;;;19.80;99.90;;;;;;4069735;29;20048;-58
2023/08/17 05:19:14;;;;;;;17.95;11.68;;;19.70;99.90;;;;;;4069440;29;20052;-58
2023/08/17 05:21:16;;;;;;;23.88;12.90;;;19.70;99.90;;;;;;4069384;29;20094;-58
2023/08/17 05:23:18;;;;;;;22.05;13.10;;;19.70;99.90;;;;;;4069352;29;20051;-57
2023/08/17 05:25:20;;;;;;;18.77;13.35;;;19.70;99.90;;;;;;4068394;29;20047;-58
2023/08/17 05:27:22;;;;;;;19.58;13.43;;;19.70;99.90;;;;;;4069327;29;20092;-58
2023/08/17 05:29:26;;;;;;;18.95;14.13;;;19.70;99.90;;;;;;4069388;29;20051;-58
2023/08/17 05:31:28;;;;;;;21.60;14.75;;;19.70;99.90;;;;;;4069421;29;20107;-57
2023/08/17 05:33:30;;;;;;;22.08;13.63;;;19.70;99.90;;;;;;4069308;29;20410;-57
2023/08/17 05:35:32;;;;;;;22.73;14.85;;;19.70;99.90;;;;;;4068780;29;20044;-57
2023/08/17 05:37:34;;;;;;;22.42;14.02;;;19.70;99.90;;;;;;4069393;29;20048;-57
2023/08/17 05:39:37;;;;;;;21.42;14.13;;;19.80;99.90;;;;;;4069163;29;20161;-57
2023/08/17 05:41:39;;;;;;;21.73;15.32;;;19.80;99.90;;;;;;4068155;29;20052;-57
2023/08/17 05:43:41;;;;;;;21.42;14.50;;;19.80;99.90;;;;;;4069075;29;20330;-57
2023/08/17 05:45:44;;;;;;;21.90;15.13;;;19.80;99.90;;;;;;4068478;29;20052;-57
2023/08/17 05:47:46;;;;;;;21.63;15.00;;;19.90;99.90;;;;;;4069135;29;20059;-56
2023/08/17 05:49:48;;;;;;;22.75;14.90;;;19.90;99.90;;;;;;4069019;29;20044;-57
2023/08/17 05:51:50;;;;;;;24.00;14.77;;;19.90;99.90;;;;;;4069244;29;20044;-59
2023/08/17 05:53:52;;;;;;;18.10;12.73;;;19.90;99.90;;;;;;4069756;29;20052;-58
2023/08/17 05:55:54;;;;;;;21.70;12.38;;;19.90;99.90;;;;;;4068480;29;20066;-62
2023/08/17 05:57:56;;;;;;;20.60;14.52;;;19.90;99.90;;;;;;4067909;29;20052;-58
2023/08/17 05:59:58;;;;;;;24.27;15.70;;;20.00;99.90;;;;;;4069118;29;20078;-58
2023/08/17 06:02:02;;;;;;;23.10;14.55;;;20.00;99.90;;;;;;4069147;29;20056;-58
2023/08/17 06:04:05;;;;;;;19.65;13.95;;;19.90;99.90;;;;;;4068825;29;20075;-58
2023/08/17 06:06:09;;;;;;;24.45;15.60;;;19.90;99.90;;;;;;4068109;29;20063;-58
2023/08/17 06:08:11;;;;;;;21.58;14.75;;;19.90;99.90;;;;;;4069038;29;20059;-57
2023/08/17 06:10:13;;;;;;;23.88;15.57;;;19.90;99.90;;;;;;4068680;29;20076;-58
2023/08/17 06:12:15;;;;;;;25.52;14.60;;;20.00;99.90;;;;;;4068583;29;20075;-58
2023/08/17 06:14:17;;;;;;;21.52;14.93;;;20.10;99.90;;;;;;4068646;29;20122;-58
2023/08/17 06:16:19;;;;;;;25.83;15.25;;;20.10;99.90;;;;;;4068301;29;20049;-58
2023/08/17 06:18:22;;;;;;;25.83;16.48;;;20.10;99.90;;;;;;4068676;29;20054;-58
2023/08/17 06:20:24;;;;;;;26.40;15.95;;;20.20;99.90;;;;;;4067451;29;20529;-58
2023/08/17 06:22:26;;;;;;;24.40;15.55;;;20.20;99.90;;;;;;4068718;29;20425;-58
2023/08/17 06:24:29;;;;;;;23.85;15.77;;;20.30;99.90;;;;;;4068126;29;20458;-59
2023/08/17 06:26:31;;;;;;;27.33;17.70;;;20.30;99.90;;;;;;4068699;29;20051;-57
2023/08/17 06:28:33;;;;;;;20.85;15.60;;;20.30;99.90;;;;;;4068821;29;20072;-58
2023/08/17 06:30:35;;;;;;;27.65;16.77;;;20.30;99.90;;;;;;4068777;29;20052;-57
2023/08/17 06:32:37;;;;;;;26.73;16.63;;;20.40;99.90;;;;;;4068421;29;20103;-58
2023/08/17 06:34:41;;;;;;;26.85;17.48;;;20.40;99.90;;;;;;4068168;29;20134;-57
2023/08/17 06:36:57;;;;;;;28.95;18.77;;;20.40;99.90;;;;;;4068324;29;20438;-57
2023/08/17 06:38:59;;;;;;;27.80;18.52;;;20.50;99.90;;;;;;4068271;29;20059;-58
2023/08/17 06:41:01;;;;;;;25.85;18.35;;;20.50;99.90;;;;;;4068432;29;20459;-58
2023/08/17 06:43:03;;;;;;;26.98;17.50;;;20.50;99.90;;;;;;4068144;29;20048;-58
2023/08/17 06:45:07;;;;;;;27.35;17.55;;;20.50;99.90;;;;;;4067771;29;20083;-58
2023/08/17 06:47:09;;;;;;;30.75;18.67;;;20.60;99.90;;;;;;4068197;29;20135;-58
2023/08/17 06:49:12;;;;;;;26.20;18.65;;;20.60;99.90;;;;;;4068351;29;20048;-58
2023/08/17 06:51:15;;;;;;;25.42;17.95;;;20.60;99.90;;;;;;4068342;29;20235;-58
2023/08/17 06:53:17;;;;;;;28.63;19.42;;;20.70;99.90;;;;;;4066582;29;20056;-58
2023/08/17 06:55:19;;;;;;;23.77;18.55;;;20.70;99.90;;;;;;4082141;29;20052;-58
2023/08/17 06:57:22;;;;;;;25.08;19.08;;;20.70;99.90;;;;;;4068420;29;20063;-58
2023/08/17 06:59:25;;;;;;;30.73;19.70;;;20.80;99.90;;;;;;4068418;29;20413;-58
2023/08/17 07:01:26;;;;;;;29.98;20.17;;;20.80;99.90;;;;;;4068285;29;20055;-58
2023/08/17 07:03:29;;;;;;;24.13;19.52;;;20.80;99.90;;;;;;4068131;29;20100;-58
2023/08/17 07:05:31;;;;;;;32.78;20.33;;;20.80;99.90;;;;;;4066521;29;20072;-58
2023/08/17 07:07:34;;;;;;;30.67;21.02;;;20.90;99.90;;;;;;4067847;29;20048;-58
2023/08/17 07:09:36;;;;;;;27.88;19.48;;;20.90;99.90;;;;;;4068205;29;20131;-58
2023/08/17 07:11:39;;;;;;;29.70;19.60;;;20.80;99.90;;;;;;4068189;29;20116;-58
2023/08/17 07:13:41;;;;;;;25.63;19.45;;;20.80;99.90;;;;;;4067996;29;20103;-58
2023/08/17 07:15:43;;;;;;;26.88;18.88;;;20.80;99.90;;;;;;4067543;29;20376;-58
2023/08/17 07:17:45;;;;;;;38.85;22.40;;;20.90;99.90;;;;;;4068300;29;20052;-57
2023/08/17 07:19:47;;;;;;;28.83;20.10;;;20.90;99.90;;;;;;4068072;29;20048;-57
2023/08/17 07:22:09;;;;;;;29.98;20.10;;;20.90;99.90;;;;;;4067705;29;20048;-57
2023/08/17 07:24:15;;;;;;;32.17;18.92;;;21.00;99.90;;;;;;4068030;29;20049;-57
2023/08/17 07:26:18;;;;;;;31.38;18.90;;;21.10;99.90;;;;;;4067511;29;20052;-57
2023/08/17 07:28:20;;;;;;;25.13;17.40;;;21.20;99.90;;;;;;4068094;29;20439;-57
2023/08/17 07:30:23;;;;;;;29.65;19.60;;;21.30;99.90;;;;;;4068281;29;20052;-58
2023/08/17 07:32:26;;;;;;;26.75;18.65;;;21.40;99.90;;;;;;4067935;29;20512;-58
2023/08/17 07:34:28;;;;;;;25.73;18.35;;;21.50;99.90;;;;;;4066745;29;20494;-58
2023/08/17 07:36:30;;;;;;;29.30;18.02;;;21.60;99.90;;;;;;4067101;29;20048;-58
2023/08/17 07:38:32;;;;;;;24.95;17.55;;;21.70;99.90;;;;;;4068166;29;20064;-58
2023/08/17 07:40:36;;;;;;;27.65;18.17;;;21.80;99.90;;;;;;4068361;29;20067;-57
2023/08/17 07:42:38;;;;;;;29.23;18.00;;;21.90;99.90;;;;;;4067835;29;20115;-58
2023/08/17 07:44:40;;;;;;;24.38;18.48;;;22.10;99.90;;;;;;4067957;29;20052;-58
2023/08/17 07:46:42;;;;;;;23.55;18.92;;;22.00;99.90;;;;;;4067539;29;20136;-58
2023/08/17 07:48:44;;;;;;;26.52;18.63;;;22.10;99.90;;;;;;4067821;29;20071;-57
2023/08/17 07:50:49;;;;;;;24.08;19.20;;;22.20;99.90;;;;;;4066621;29;20499;-58
2023/08/17 07:52:51;;;;;;;29.48;18.50;;;22.30;99.90;;;;;;4068131;29;20076;-58
2023/08/17 07:54:53;;;;;;;26.48;19.80;;;22.30;99.90;;;;;;4067260;29;20048;-58
2023/08/17 07:56:56;;;;;;;25.92;18.42;;;22.40;99.90;;;;;;4067693;29;20086;-58
2023/08/17 07:58:58;;;;;;;28.90;19.83;;;22.60;99.90;;;;;;4068035;29;20060;-58
2023/08/17 08:01:00;;;;;;;28.52;21.40;;;22.70;99.90;;;;;;4067863;29;20071;-58
2023/08/17 08:03:04;;;;;;;33.22;20.55;;;22.70;99.90;;;;;;4067913;29;20052;-58
2023/08/17 08:05:07;;;;;;;40.47;20.92;;;22.70;99.90;;;;;;4067616;29;20052;-58
2023/08/17 08:07:10;;;;;;;30.45;19.70;;;22.80;99.90;;;;;;4069304;29;20048;-57
2023/08/17 08:09:12;;;;;;;29.83;19.05;;;22.80;99.90;;;;;;4070790;29;20059;-58
2023/08/17 08:11:14;;;;;;;24.80;18.85;;;22.70;99.90;;;;;;4070641;29;20048;-57
2023/08/17 08:13:18;;;;;;;33.03;22.52;;;22.90;99.90;;;;;;4070411;29;20046;-57
2023/08/17 08:15:20;;;;;;;28.23;19.95;;;22.90;99.90;;;;;;4069995;29;20051;-57
2023/08/17 08:17:22;;;;;;;24.15;18.40;;;22.90;99.90;;;;;;4070373;29;20059;-58
2023/08/17 08:19:27;;;;;;;27.50;20.00;;;22.90;99.90;;;;;;4070286;29;20048;-58
2023/08/17 08:21:29;;;;;;;23.80;19.45;;;22.90;99.90;;;;;;4070682;29;20052;-57
2023/08/17 08:23:31;;;;;;;23.63;17.33;;;22.90;99.90;;;;;;4070392;29;20502;-58
2023/08/17 08:25:33;;;;;;;25.42;19.33;;;23.10;99.90;;;;;;4069997;29;20058;-57
2023/08/17 08:27:35;;;;;;;28.35;19.70;;;23.10;99.90;;;;;;4070369;29;20056;-58
2023/08/17 08:29:39;;;;;;;26.70;18.23;;;23.10;99.90;;;;;;4070447;29;20096;-57
2023/08/17 08:31:41;;;;;;;27.08;19.75;;;23.30;99.90;;;;;;4070446;29;20048;-58
2023/08/17 08:33:44;;;;;;;27.15;19.00;;;23.40;99.90;;;;;;4069825;29;20538;-58
2023/08/17 08:35:46;;;;;;;34.15;20.05;;;23.50;99.90;;;;;;4069588;29;20049;-58
2023/08/17 08:37:48;;;;;;;34.40;19.17;;;23.60;99.90;;;;;;4070167;29;20052;-58
2023/08/17 08:39:51;;;;;;;33.78;20.23;;;23.60;99.90;;;;;;4070442;29;20081;-58
2023/08/17 08:41:53;;;;;;;23.90;19.33;;;23.60;99.90;;;;;;4070393;29;20052;-58
2023/08/17 08:43:55;;;;;;;26.67;19.13;;;23.60;99.90;;;;;;4070124;29;20395;-58
2023/08/17 08:45:59;;;;;;;26.38;18.55;;;23.60;99.90;;;;;;4070745;29;20072;-59
2023/08/17 08:48:03;;;;;;;29.92;18.52;;;23.70;99.90;;;;;;4071804;29;20468;-59
2023/08/17 08:50:06;;;;;;;22.80;18.02;;;23.70;99.90;;;;;;4070754;29;20080;-63
2023/08/17 08:52:12;;;;;;;22.98;17.50;;;23.70;99.90;;;;;;4070721;29;20127;-58
2023/08/17 08:54:16;;;;;;;26.77;19.13;;;23.80;99.90;;;;;;4070086;29;20055;-59
2023/08/17 08:56:20;;;;;;;;;;;23.80;99.90;;;;;;4070017;29;20078;-58
2023/08/17 08:58:23;;;;;;;24.02;18.92;;;23.90;99.90;;;;;;4070226;29;20446;-58
2023/08/17 09:00:26;;;;;;;26.77;17.55;;;23.90;99.90;;;;;;4070062;29;20529;-59
2023/08/17 09:02:30;;;;;;;30.05;18.33;;;24.00;99.90;;;;;;4070001;29;20167;-59
2023/08/17 09:04:32;;;;;;;22.52;16.48;;;24.00;99.90;;;;;;4069836;29;20048;-59
2023/08/17 09:06:35;;;;;;;22.67;16.38;;;24.00;99.90;;;;;;4069165;29;20059;-58
2023/08/17 09:08:38;;;;;;;24.58;16.02;;;24.10;99.90;;;;;;4069708;29;20153;-58
2023/08/17 09:10:41;;;;;;;23.65;15.80;;;24.10;99.90;;;;;;4069898;29;20059;-58
2023/08/17 09:12:45;;;;;;;24.08;17.67;;;24.20;99.90;;;;;;4069453;29;20060;-58
2023/08/17 09:14:50;;;;;;;23.92;16.50;;;24.10;99.90;;;;;;4069623;29;20067;-58
2023/08/17 09:16:58;;;;;;;33.28;17.35;;;24.20;99.90;;;;;;4068861;29;20051;-58
2023/08/17 09:19:03;;;;;;;24.40;15.85;;;24.20;99.90;;;;;;4069477;29;20048;-58
2023/08/17 09:21:05;;;;;;;22.85;16.65;;;24.20;99.90;;;;;;4069728;29;20139;-57
2023/08/17 09:23:12;;;;;;;23.35;15.80;;;24.30;99.90;;;;;;4069514;29;20052;-57
2023/08/17 09:25:22;;;;;;;27.10;15.60;;;24.40;99.90;;;;;;4069214;29;20072;-58
2023/08/17 09:27:24;;;;;;;22.45;14.93;;;24.40;99.90;;;;;;4070631;29;20056;-59
2023/08/17 09:29:26;;;;;;;24.02;14.10;;;24.60;99.90;;;;;;4070573;29;20075;-59
2023/08/17 09:31:30;;;;;;;22.80;13.50;;;24.60;99.10;;;;;;4070501;29;20055;-57
2023/08/17 09:33:33;;;;;;;19.95;14.70;;;24.60;99.10;;;;;;4069870;29;20082;-58
2023/08/17 09:35:36;;;;;;;21.13;14.82;;;24.60;99.30;;;;;;4068937;29;20058;-58
2023/08/17 09:37:38;;;;;;;22.75;14.77;;;24.60;99.60;;;;;;4069293;29;20471;-58
2023/08/17 09:39:40;;;;;;;24.08;14.32;;;24.60;99.50;;;;;;4069580;29;20047;-58
2023/08/17 09:41:42;;;;;;;20.92;13.10;;;24.70;99.50;;;;;;4069629;29;20048;-58
2023/08/17 09:43:45;;;;;;;17.52;14.32;;;24.80;99.40;;;;;;4083760;29;20063;-58
2023/08/17 09:45:49;;;;;;;18.20;13.50;;;24.70;99.00;;;;;;4068671;29;20048;-58
2023/08/17 09:47:52;;;;;;;20.10;11.82;;;24.70;99.10;;;;;;4069203;29;20048;-58
2023/08/17 09:49:54;;;;;;;16.55;12.57;;;24.70;98.60;;;;;;4069160;29;20143;-60
2023/08/17 09:51:59;;;;;;;16.77;12.50;;;24.80;98.60;;;;;;4069190;29;20048;-60
2023/08/17 09:54:01;;;;;;;17.25;13.57;;;24.90;98.50;;;;;;4068982;29;20052;-60
2023/08/17 09:56:07;;;;;;;14.93;11.75;;;24.80;98.50;;;;;;4068207;29;20479;-60
2023/08/17 09:58:10;;;;;;;21.98;12.10;;;24.90;98.60;;;;;;4068926;29;20494;-60
2023/08/17 10:00:13;;;;;;;18.90;12.43;;;25.00;98.20;;;;;;4069119;29;20067;-60
2023/08/17 10:02:19;;;;;;;18.17;12.15;;;25.00;98.20;;;;;;4068598;29;20139;-61
2023/08/17 10:04:23;;;;;;;16.73;12.25;;;24.90;98.00;;;;;;4068777;29;20091;-61
2023/08/17 10:06:28;;;;;;;13.38;11.18;;;24.90;98.00;;;;;;4068323;29;20048;-60
2023/08/17 10:08:36;;;;;;;15.10;11.90;;;25.00;98.00;;;;;;4068807;29;20044;-60
2023/08/17 10:10:44;;;;;;;14.73;10.70;;;25.00;97.80;;;;;;4068930;29;20737;-60
2023/08/17 10:12:52;;;;;;;19.15;10.40;;;25.10;98.00;;;;;;4068529;29;20084;-58
2023/08/17 10:14:59;;;;;;;14.15;11.20;;;25.10;97.00;;;;;;4068545;29;20071;-57
2023/08/17 10:17:10;;;;;;;14.73;10.18;;;25.10;97.90;;;;;;4068067;29;20048;-57
2023/08/17 10:19:19;;;;;;;14.63;11.57;;;25.10;98.50;;;;;;4068699;29;20056;-57
2023/08/17 10:21:27;;;;;;;13.98;10.82;;;25.10;98.20;;;;;;4068559;29;20047;-58
2023/08/17 10:23:31;;;;;;;13.52;10.32;;;25.20;98.40;;;;;;4068629;29;20131;-58
2023/08/17 10:25:34;;;;;;;15.05;11.13;;;25.20;98.20;;;;;;4068344;29;20292;-58
2023/08/17 10:27:37;;;;;;;15.10;11.35;;;25.30;98.30;;;;;;4068230;29;20048;-58
2023/08/17 10:29:40;;;;;;;13.35;9.60;;;25.20;98.10;;;;;;4068234;29;20056;-58